Lupton, Arizona
Current Conditions -  °F | °C
As of 3:53 PM on Thursday 20 Nov 2014 (Local Time) from KGUP Reporting Station
Clear Clear  
Wind Chill: 54°   Ceiling: Unl
Heat Index: 54°   Visibility: 10mi
Dew Point: 14°   Wind: 14mph
Humidity: 21%   Direction: 220°SW
Pressure: 30.06"   Gusts: NA
Location:  35.35°N, 109.06°W
Report Text: KGUP 202253Z AUTO 22012KT 10SM CLR 12/M10 A3006 RMK AO2 SLP148 T01221100
Loading
Personal Weather Stations






























Interactive Weather Map New forecast layout! Learn more

10-Day Weather Forecast

Advertisements
Track Severe Weather on mobile